Time;durP1;ratioP1;P1;durP2;ratioP2;P2;SDS_P1;SDS_P2;PMS_P1;PMS_P2;Temp;Humidity;BMP_temperature;BMP_pressure;BME280_temperature;BME280_humidity;BME280_pressure;Samples;Min_cycle;Max_cycle;Signal;HPM_P1;HPM_P2
2023/12/29 00:00:03;;;;;;;0.50;0.50;;;;;;;7.75;94.88;96897.59;29395;215;63008;-54
2023/12/29 00:00:34;;;;;;;0.50;0.50;;;;;;;7.80;94.54;96913.78;29395;228;63005;-61
2023/12/29 00:01:06;;;;;;;0.50;0.50;;;;;;;7.85;93.90;96902.16;29395;197;63009;-55
2023/12/29 00:01:37;;;;;;;0.50;0.50;;;;;;;7.86;93.76;96898.37;29395;253;63005;-55
2023/12/29 00:02:08;;;;;;;0.60;0.60;;;;;;;7.88;93.67;96901.63;29394;206;64014;-56
2023/12/29 00:02:40;;;;;;;0.50;0.50;;;;;;;7.91;93.28;96904.59;29395;203;63005;-55
2023/12/29 00:03:11;;;;;;;0.50;0.50;;;;;;;7.91;93.11;96906.47;29395;196;63020;-56
2023/12/29 00:03:43;;;;;;;0.50;0.50;;;;;;;7.92;93.09;96895.41;29395;275;63005;-55
2023/12/29 00:04:25;;;;;;;;;;;;;;;;;;;;;
2023/12/29 00:04:56;;;;;;;0.50;0.50;;;;;;;7.89;93.21;96898.66;29395;274;63000;-55
2023/12/29 00:05:28;;;;;;;0.60;0.60;;;;;;;7.86;92.89;96891.09;29395;281;63018;-55
2023/12/29 00:06:02;;;;;;;0.50;0.50;;;;;;;7.85;93.20;96897.56;29395;203;63004;-55
2023/12/29 00:06:37;;;;;;;0.50;0.50;;;;;;;7.84;93.31;96895.16;29395;278;63009;-55
2023/12/29 00:07:08;;;;;;;0.50;0.50;;;;;;;7.85;93.49;96892.19;29395;216;63004;-55
2023/12/29 00:07:40;;;;;;;0.50;0.50;;;;;;;7.84;93.32;96889.75;29394;211;64013;-55
2023/12/29 00:08:12;;;;;;;0.50;0.50;;;;;;;7.83;92.96;96888.94;29395;243;63005;-55
2023/12/29 00:08:43;;;;;;;0.50;0.50;;;;;;;7.83;92.93;96888.12;29395;250;63009;-54
2023/12/29 00:09:16;;;;;;;0.50;0.50;;;;;;;7.87;93.25;96878.41;29395;234;63005;-55
2023/12/29 00:09:47;;;;;;;0.50;0.50;;;;;;;7.87;93.09;96889.19;29395;243;63009;-55
2023/12/29 00:10:18;;;;;;;0.50;0.50;;;;;;;7.87;93.05;96887.31;29395;242;63005;-55
2023/12/29 00:10:50;;;;;;;1.67;1.67;;;;;;;7.92;92.92;96881.09;29395;224;63009;-57
2023/12/29 00:11:22;;;;;;;0.70;0.70;;;;;;;7.96;92.35;96888.38;29395;204;63005;-54
2023/12/29 00:11:56;;;;;;;0.60;0.60;;;;;;;8.00;91.90;96891.28;29395;216;63016;-55
2023/12/29 00:12:27;;;;;;;0.50;0.50;;;;;;;7.98;91.92;96891.56;29395;245;63004;-55
2023/12/29 00:13:00;;;;;;;0.50;0.50;;;;;;;7.97;91.99;96894.56;29394;229;64013;-57
2023/12/29 00:13:31;;;;;;;0.60;0.60;;;;;;;8.08;91.47;96886.13;29395;206;63004;-55
2023/12/29 00:14:02;;;;;;;0.50;0.50;;;;;;;8.13;91.02;96889.91;29395;206;63008;-56
2023/12/29 00:14:36;;;;;;;0.50;0.50;;;;;;;8.13;90.91;96888.00;29395;196;63004;-56
2023/12/29 00:15:09;;;;;;;0.50;0.50;;;;;;;8.10;90.88;96885.03;29395;213;63018;-55
2023/12/29 00:15:40;;;;;;;0.50;0.50;;;;;;;8.07;91.08;96883.69;29395;216;63005;-55
2023/12/29 00:16:11;;;;;;;0.50;0.50;;;;;;;8.04;91.27;96889.66;29395;277;63019;-57
2023/12/29 00:16:46;;;;;;;0.50;0.50;;;;;;;8.01;91.55;96885.63;29395;214;63005;-56
2023/12/29 00:17:17;;;;;;;0.50;0.50;;;;;;;7.99;91.62;96893.19;29395;197;63009;-56
2023/12/29 00:17:49;;;;;;;0.50;0.50;;;;;;;8.00;91.72;96894.00;29395;204;63005;-55
2023/12/29 00:18:20;;;;;;;1.35;1.35;;;;;;;8.03;91.44;96888.84;29394;211;64013;-55
2023/12/29 00:18:52;;;;;;;0.50;0.50;;;;;;;8.05;91.35;96891.28;29395;202;63005;-56
2023/12/29 00:19:23;;;;;;;0.60;0.60;;;;;;;8.08;90.87;96888.84;29395;257;63009;-55
2023/12/29 00:19:54;;;;;;;0.50;0.50;;;;;;;8.07;90.94;96884.50;29395;257;63004;-55
2023/12/29 00:20:25;;;;;;;0.50;0.50;;;;;;;8.06;91.10;96888.31;29395;248;63017;-55
2023/12/29 00:20:57;;;;;;;0.60;0.60;;;;;;;8.05;91.18;96886.69;29394;196;64004;-55
2023/12/29 00:21:28;;;;;;;0.50;0.50;;;;;;;8.04;91.05;96887.75;29395;237;63008;-56
2023/12/29 00:22:02;;;;;;;0.50;0.50;;;;;;;8.02;91.38;96881.81;29395;218;63004;-57
2023/12/29 00:22:34;;;;;;;0.50;0.50;;;;;;;8.03;91.21;96885.34;29395;220;63009;-56
2023/12/29 00:23:05;;;;;;;0.50;0.50;;;;;;;8.02;91.39;96881.03;29394;219;64009;-55
2023/12/29 00:23:36;;;;;;;0.50;0.50;;;;;;;8.01;91.51;96880.22;29395;223;63023;-56
2023/12/29 00:24:11;;;;;;;0.50;0.50;;;;;;;8.00;91.60;96877.78;29395;235;63005;-57
2023/12/29 00:24:42;;;;;;;0.50;0.50;;;;;;;8.03;91.41;96883.44;29395;196;63009;-58
2023/12/29 00:25:14;;;;;;;0.60;0.60;;;;;;;8.17;90.34;96889.06;29395;209;63005;-55
2023/12/29 00:25:45;;;;;;;0.50;0.50;;;;;;;8.18;89.91;96873.66;29395;245;63009;-55
2023/12/29 00:26:17;;;;;;;0.50;0.50;;;;;;;8.17;89.90;96882.84;29395;202;63005;-55
2023/12/29 00:26:48;;;;;;;0.50;0.50;;;;;;;8.16;90.07;96881.25;29395;235;63009;-56
2023/12/29 00:27:20;;;;;;;0.57;0.57;;;;;;;8.16;90.26;96892.06;29395;197;63004;-56
2023/12/29 00:27:51;;;;;;;0.60;0.60;;;;;;;8.12;90.27;96885.59;29395;222;63019;-55
2023/12/29 00:28:22;;;;;;;0.50;0.50;;;;;;;8.07;90.32;96889.09;29394;202;64009;-57
2023/12/29 00:28:54;;;;;;;0.50;0.50;;;;;;;8.03;90.64;96878.03;29395;210;63009;-56
2023/12/29 00:29:31;;;;;;;0.50;0.50;;;;;;;8.01;90.86;96880.22;29395;216;63004;-59
2023/12/29 00:30:04;;;;;;;0.50;0.50;;;;;;;7.99;91.11;96874.28;29395;203;63009;-57
2023/12/29 00:30:39;;;;;;;0.50;0.50;;;;;;;7.96;91.46;96876.75;29395;202;63005;-55
2023/12/29 00:31:17;;;;;;;0.50;0.50;;;;;;;7.93;91.67;96883.50;29395;242;63009;-56
2023/12/29 00:31:48;;;;;;;0.52;0.52;;;;;;;7.93;91.82;96880.00;29395;242;63018;-55
2023/12/29 00:32:19;;;;;;;0.60;0.60;;;;;;;7.90;91.71;96873.25;29395;223;63009;-55
2023/12/29 00:32:54;;;;;;;0.50;0.50;;;;;;;7.95;91.37;96881.34;29395;234;63005;-56
2023/12/29 00:33:26;;;;;;;0.50;0.50;;;;;;;7.94;91.41;96878.91;29394;216;64013;-56
2023/12/29 00:33:57;;;;;;;0.60;0.60;;;;;;;7.95;91.50;96881.34;29395;213;63005;-56
2023/12/29 00:34:29;;;;;;;0.50;0.50;;;;;;;7.93;91.23;96872.69;29395;212;63009;-56
2023/12/29 00:35:04;;;;;;;0.50;0.50;;;;;;;7.98;91.09;96883.47;29395;234;63004;-57
2023/12/29 00:35:40;;;;;;;0.50;0.50;;;;;;;8.04;90.70;96884.25;29395;243;63009;-56
2023/12/29 00:36:19;;;;;;;0.50;0.50;;;;;;;8.08;90.22;96878.03;29395;202;63008;-57
2023/12/29 00:36:51;;;;;;;0.50;0.50;;;;;;;8.07;90.05;96881.81;29395;209;63008;-56
2023/12/29 00:37:23;;;;;;;0.50;0.50;;;;;;;8.04;90.45;96876.16;29395;218;63004;-56
2023/12/29 00:37:54;;;;;;;0.50;0.50;;;;;;;8.05;90.26;96875.06;29395;217;63009;-55
2023/12/29 00:38:28;;;;;;;0.50;0.50;;;;;;;8.02;90.36;96872.91;29395;307;63005;-56
2023/12/29 00:38:59;;;;;;;0.50;0.50;;;;;;;7.99;90.42;96882.38;29394;243;64014;-56
2023/12/29 00:39:38;;;;;;;0.50;0.50;;;;;;;7.95;90.53;96873.22;29395;197;63005;-56
2023/12/29 00:40:10;;;;;;;0.50;0.50;;;;;;;7.94;90.85;96878.91;29395;224;63009;-56
2023/12/29 00:40:41;;;;;;;0.50;0.50;;;;;;;7.92;91.24;96881.88;29395;205;63005;-56
2023/12/29 00:41:12;;;;;;;0.50;0.50;;;;;;;7.89;91.31;96877.03;29395;225;63009;-57
2023/12/29 00:41:44;;;;;;;0.50;0.50;;;;;;;7.88;91.60;96875.41;29395;238;63015;-56
2023/12/29 00:42:15;;;;;;;0.50;0.50;;;;;;;7.86;91.67;96872.19;29395;214;63009;-56
2023/12/29 00:42:46;;;;;;;0.50;0.50;;;;;;;7.87;91.73;96873.00;29395;220;63004;-56
2023/12/29 00:43:17;;;;;;;0.50;0.50;;;;;;;7.87;91.85;96868.41;29395;244;63009;-56
2023/12/29 00:43:49;;;;;;;0.50;0.50;;;;;;;7.86;91.88;96872.19;29395;204;63004;-56
2023/12/29 00:44:20;;;;;;;0.50;0.50;;;;;;;7.86;91.93;96877.59;29394;211;64013;-56
2023/12/29 00:44:52;;;;;;;0.60;0.60;;;;;;;7.86;91.71;96885.69;29395;251;63016;-56
2023/12/29 00:45:23;;;;;;;0.50;0.50;;;;;;;7.85;91.50;96886.78;29395;220;63018;-56
2023/12/29 00:45:54;;;;;;;0.50;0.50;;;;;;;7.82;91.64;96871.13;29395;271;63005;-56
2023/12/29 00:46:26;;;;;;;0.50;0.50;;;;;;;7.81;91.84;96880.28;29395;203;63009;-56
2023/12/29 00:46:57;;;;;;;0.50;0.50;;;;;;;7.80;92.00;96884.09;29394;243;64009;-56
2023/12/29 00:47:29;;;;;;;0.80;0.80;;;;;;;7.84;92.07;96873.53;29395;271;63009;-55
2023/12/29 00:48:00;;;;;;;0.50;0.50;;;;;;;7.85;92.05;96875.16;29395;210;63005;-56
2023/12/29 00:48:35;;;;;;;0.50;0.50;;;;;;;7.85;91.74;96875.97;29395;200;63005;-56
2023/12/29 00:49:07;;;;;;;0.50;0.50;;;;;;;7.84;91.61;96870.84;29395;230;63005;-57
2023/12/29 00:49:41;;;;;;;0.50;0.50;;;;;;;7.82;91.72;96876.50;29395;198;63009;-57
2023/12/29 00:50:12;;;;;;;0.50;0.50;;;;;;;7.81;91.84;96869.50;29395;198;63004;-56
2023/12/29 00:50:43;;;;;;;0.50;0.50;;;;;;;7.80;91.90;96884.09;29395;237;63009;-57
2023/12/29 00:51:15;;;;;;;0.55;0.55;;;;;;;7.84;92.09;96876.25;29395;196;63004;-59
2023/12/29 00:51:47;;;;;;;0.60;0.60;;;;;;;7.90;91.04;96883.25;29394;210;64008;-56
2023/12/29 00:52:19;;;;;;;0.50;0.50;;;;;;;7.91;90.94;96876.75;29394;362;64008;-56
2023/12/29 00:52:50;;;;;;;1.60;1.50;;;;;;;7.93;91.04;96872.69;29395;199;63009;-55
2023/12/29 00:53:21;;;;;;;0.50;0.50;;;;;;;7.92;90.92;96876.50;29395;223;63005;-56
2023/12/29 00:53:52;;;;;;;0.50;0.50;;;;;;;7.91;90.73;96880.28;29395;212;63009;-55
2023/12/29 00:54:24;;;;;;;0.50;0.50;;;;;;;7.90;91.00;96877.84;29395;224;63005;-56
2023/12/29 00:54:55;;;;;;;0.60;0.60;;;;;;;7.92;90.79;96873.78;29395;215;63009;-55
2023/12/29 00:55:26;;;;;;;0.50;0.50;;;;;;;7.92;90.89;96865.69;29395;212;63005;-55
2023/12/29 00:56:00;;;;;;;0.52;0.52;;;;;;;7.94;90.87;96873.50;29395;216;63009;-57
2023/12/29 00:56:31;;;;;;;0.50;0.50;;;;;;;7.96;90.23;96869.44;29395;218;63005;-56
2023/12/29 00:57:03;;;;;;;0.50;0.50;;;;;;;7.95;90.31;96865.12;29395;219;63009;-55
2023/12/29 00:57:34;;;;;;;0.50;0.50;;;;;;;7.93;90.54;96874.59;29394;273;64009;-56
2023/12/29 00:58:05;;;;;;;0.50;0.50;;;;;;;7.91;90.67;96880.28;29395;197;63009;-55
2023/12/29 00:58:36;;;;;;;0.50;0.50;;;;;;;7.91;90.65;96874.06;29395;220;63011;-56
2023/12/29 00:59:08;;;;;;;0.50;0.50;;;;;;;7.92;90.85;96876.50;29395;215;63020;-57
2023/12/29 00:59:43;;;;;;;0.50;0.50;;;;;;;7.92;90.81;96887.28;29395;213;63004;-56
2023/12/29 01:00:16;;;;;;;0.50;0.50;;;;;;;7.91;90.83;96874.88;29395;247;63024;-61
2023/12/29 01:00:49;;;;;;;0.50;0.50;;;;;;;7.91;90.74;96877.56;29395;259;63005;-54
2023/12/29 01:01:20;;;;;;;0.50;0.50;;;;;;;7.91;90.83;96885.69;29395;221;63009;-57
2023/12/29 01:01:51;;;;;;;0.50;0.50;;;;;;;7.91;90.93;96885.69;29395;196;63005;-56
2023/12/29 01:02:22;;;;;;;0.57;0.57;;;;;;;7.91;90.98;96885.69;29395;236;63009;-57
2023/12/29 01:02:54;;;;;;;0.50;0.50;;;;;;;7.92;91.06;96881.88;29394;220;64009;-56
2023/12/29 01:03:26;;;;;;;0.50;0.50;;;;;;;7.93;90.71;96883.50;29395;211;63009;-56
2023/12/29 01:03:57;;;;;;;0.77;0.77;;;;;;;7.93;90.58;96888.91;29395;205;63005;-55
2023/12/29 01:04:28;;;;;;;0.50;0.50;;;;;;;7.91;90.65;96891.06;29395;226;63004;-56
2023/12/29 01:04:59;;;;;;;0.50;0.50;;;;;;;7.91;90.80;96890.28;29395;207;63004;-56
2023/12/29 01:05:30;;;;;;;0.50;0.50;;;;;;;7.89;90.82;96882.44;29395;199;63009;-56
2023/12/29 01:06:02;;;;;;;0.50;0.50;;;;;;;7.89;91.10;96887.84;29395;232;63004;-56
2023/12/29 01:06:33;;;;;;;0.50;0.50;;;;;;;7.92;90.73;96898.09;29395;305;63009;-58
2023/12/29 01:07:05;;;;;;;2.37;0.98;;;;;;;8.03;89.90;96899.66;29395;231;63010;-64
2023/12/29 01:07:36;;;;;;;0.50;0.50;;;;;;;8.12;89.05;96890.97;29395;201;63009;-56
2023/12/29 01:08:07;;;;;;;0.50;0.50;;;;;;;8.21;88.28;96886.63;29394;230;64009;-56
2023/12/29 01:08:41;;;;;;;0.50;0.50;;;;;;;8.19;87.85;96886.91;29395;231;63009;-56
2023/12/29 01:09:13;;;;;;;0.60;0.60;;;;;;;8.17;88.04;96896.38;29395;259;63005;-55
2023/12/29 01:09:44;;;;;;;0.50;0.50;;;;;;;8.15;88.20;96891.25;29395;279;63009;-56
2023/12/29 01:10:15;;;;;;;0.50;0.50;;;;;;;8.16;88.26;96895.56;29395;232;63005;-57
2023/12/29 01:10:47;;;;;;;0.82;0.82;;;;;;;8.21;87.65;96889.34;29395;221;63009;-56
2023/12/29 01:11:18;;;;;;;0.50;0.50;;;;;;;8.23;87.50;96893.38;29395;270;63004;-56
2023/12/29 01:11:49;;;;;;;0.50;0.50;;;;;;;8.24;87.32;96894.19;29395;230;63009;-56
2023/12/29 01:12:20;;;;;;;0.50;0.50;;;;;;;8.22;88.15;96885.53;29395;209;63004;-57
2023/12/29 01:12:51;;;;;;;0.50;0.50;;;;;;;8.17;88.50;96896.38;29395;197;63009;-56
2023/12/29 01:13:23;;;;;;;0.50;0.50;;;;;;;8.14;88.39;96894.22;29394;278;64009;-55
2023/12/29 01:13:54;;;;;;;0.50;0.50;;;;;;;8.13;88.15;96904.22;29395;220;63008;-56
2023/12/29 01:14:26;;;;;;;0.50;0.50;;;;;;;8.19;87.58;96892.31;29395;248;63004;-60
2023/12/29 01:14:57;;;;;;;0.50;0.50;;;;;;;8.24;87.16;96896.88;29395;204;63008;-56
2023/12/29 01:15:28;;;;;;;0.50;0.50;;;;;;;8.21;86.97;96890.13;29395;211;63005;-56
2023/12/29 01:15:59;;;;;;;0.50;0.50;;;;;;;8.19;87.28;96900.41;29395;205;63009;-56
2023/12/29 01:16:31;;;;;;;0.50;0.50;;;;;;;8.18;87.54;96898.81;29395;253;63005;-54
2023/12/29 01:17:02;;;;;;;0.50;0.50;;;;;;;8.14;87.57;96895.03;29395;218;63009;-56
2023/12/29 01:17:34;;;;;;;0.50;0.50;;;;;;;8.14;87.98;96899.63;29395;239;63005;-55
2023/12/29 01:18:05;;;;;;;0.50;0.50;;;;;;;8.11;88.10;96889.38;29395;227;63009;-56
2023/12/29 01:18:36;;;;;;;0.60;0.60;;;;;;;8.14;88.14;96899.63;29394;220;64009;-56
2023/12/29 01:19:07;;;;;;;0.50;0.50;;;;;;;8.15;88.09;96901.25;29395;220;63009;-57
2023/12/29 01:19:39;;;;;;;15.38;14.63;;;;;;;8.15;88.27;96891.25;29385;197;65010;-57
2023/12/29 01:20:10;;;;;;;0.60;0.60;;;;;;;8.18;87.73;96889.88;29395;234;63018;-55
2023/12/29 01:20:42;;;;;;;0.50;0.50;;;;;;;8.18;87.19;96890.69;29395;227;63004;-58
2023/12/29 01:21:14;;;;;;;0.50;0.50;;;;;;;8.16;87.27;96892.06;29395;221;63008;-56
2023/12/29 01:21:45;;;;;;;0.50;0.50;;;;;;;8.15;87.49;96895.84;29395;233;63004;-56
2023/12/29 01:22:16;;;;;;;0.55;0.55;;;;;;;8.13;87.79;96887.19;29395;219;63009;-56
2023/12/29 01:22:47;;;;;;;0.82;0.82;;;;;;;8.14;87.90;96892.31;29395;198;63005;-57
2023/12/29 01:23:19;;;;;;;0.60;0.60;;;;;;;8.15;87.54;96885.03;29395;271;63009;-56
2023/12/29 01:23:52;;;;;;;0.60;0.60;;;;;;;8.15;87.60;96885.03;29394;221;64009;-57
2023/12/29 01:24:23;;;;;;;0.50;0.50;;;;;;;8.13;87.55;96887.19;29395;242;63009;-57
2023/12/29 01:24:54;;;;;;;0.52;0.52;;;;;;;8.10;87.83;96882.34;29395;224;63005;-58
2023/12/29 01:25:25;;;;;;;0.60;0.60;;;;;;;8.10;88.04;96890.44;29395;218;63009;-57
2023/12/29 01:25:57;;;;;;;0.60;0.60;;;;;;;8.08;88.11;96885.31;29395;209;63014;-57
2023/12/29 01:26:28;;;;;;;0.50;0.50;;;;;;;8.19;87.36;96886.91;29395;202;63009;-57
2023/12/29 01:26:59;;;;;;;2.25;2.15;;;;;;;8.28;86.59;96887.12;29395;216;63004;-58
2023/12/29 01:27:30;;;;;;;1.33;1.33;;;;;;;8.29;86.27;96880.66;29395;197;63009;-56
2023/12/29 01:28:01;;;;;;;0.50;0.50;;;;;;;8.27;86.40;96888.22;29395;210;63004;-56
2023/12/29 01:28:33;;;;;;;0.50;0.50;;;;;;;8.22;86.49;96885.53;29395;254;63009;-59
2023/12/29 01:29:06;;;;;;;0.50;0.50;;;;;;;8.22;86.49;96877.44;29394;206;64008;-58
2023/12/29 01:29:37;;;;;;;0.50;0.50;;;;;;;8.26;85.90;96883.91;29395;208;63009;-58
2023/12/29 01:30:09;;;;;;;0.50;0.50;;;;;;;8.30;85.70;96882.28;29395;265;63005;-57
2023/12/29 01:30:40;;;;;;;0.50;0.50;;;;;;;8.33;85.40;96882.53;29395;267;63009;-56
2023/12/29 01:31:13;;;;;;;0.57;0.57;;;;;;;8.30;85.56;96879.56;29395;229;63005;-55
2023/12/29 01:31:44;;;;;;;0.50;0.50;;;;;;;8.27;85.63;96888.22;29395;241;63009;-56
2023/12/29 01:32:15;;;;;;;0.50;0.50;;;;;;;8.29;85.77;96886.06;29395;216;63005;-57
2023/12/29 01:32:47;;;;;;;0.50;0.50;;;;;;;8.32;85.43;96885.47;29395;206;63009;-56
2023/12/29 01:33:19;;;;;;;0.50;0.50;;;;;;;8.30;85.41;96882.28;29395;299;63011;-55
2023/12/29 01:33:50;;;;;;;0.50;0.50;;;;;;;8.27;85.62;96888.22;29395;202;63009;-56
2023/12/29 01:34:22;;;;;;;0.50;0.50;;;;;;;8.23;85.97;96887.97;29394;202;64009;-55
2023/12/29 01:34:53;;;;;;;0.50;0.50;;;;;;;8.21;86.18;96883.94;29395;252;63009;-56
2023/12/29 01:35:24;;;;;;;0.60;0.60;;;;;;;8.24;86.19;96888.78;29395;251;63004;-57
2023/12/29 01:35:55;;;;;;;0.50;0.50;;;;;;;8.28;85.78;96887.12;29395;215;63009;-57
2023/12/29 01:36:27;;;;;;;0.50;0.50;;;;;;;8.32;85.53;96886.31;29395;202;63004;-57
2023/12/29 01:36:58;;;;;;;0.50;0.50;;;;;;;8.31;85.35;96887.41;29395;234;63009;-56
2023/12/29 01:37:32;;;;;;;0.60;0.60;;;;;;;8.28;85.42;96884.44;29395;236;63009;-56
2023/12/29 01:38:04;;;;;;;0.50;0.50;;;;;;;8.26;85.92;96892.00;29395;231;63014;-56
2023/12/29 01:38:35;;;;;;;0.60;0.60;;;;;;;8.24;86.29;96894.19;29395;246;63017;-57
2023/12/29 01:39:06;;;;;;;0.50;0.50;;;;;;;8.20;86.65;96888.53;29395;235;63009;-55
2023/12/29 01:39:39;;;;;;;0.50;0.50;;;;;;;8.19;87.01;96891.50;29394;230;64009;-56
2023/12/29 01:40:11;;;;;;;0.50;0.50;;;;;;;8.17;87.26;96894.47;29395;227;63009;-54
2023/12/29 01:40:46;;;;;;;0.60;0.60;;;;;;;8.21;86.95;96895.53;29395;205;63005;-56
2023/12/29 01:41:20;;;;;;;0.50;0.50;;;;;;;8.24;86.73;96896.88;29395;230;63009;-55
2023/12/29 01:41:52;;;;;;;0.60;0.60;;;;;;;8.22;86.94;96896.34;29395;197;63015;-55
2023/12/29 01:42:24;;;;;;;0.50;0.50;;;;;;;8.22;87.04;96889.06;29395;196;63009;-56
2023/12/29 01:42:56;;;;;;;0.50;0.50;;;;;;;8.25;86.68;96893.09;29395;255;63004;-55
2023/12/29 01:43:27;;;;;;;0.50;0.50;;;;;;;8.29;86.15;96894.16;29395;372;63009;-55
2023/12/29 01:44:22;;;;;;;0.60;0.60;;;;;;;8.31;86.19;96900.09;29394;212;64004;-55
2023/12/29 01:44:54;;;;;;;0.60;0.60;;;;;;;8.33;85.27;96892.53;29394;215;64014;-59
2023/12/29 01:45:26;;;;;;;0.60;0.60;;;;;;;8.33;85.69;96893.34;29395;245;63005;-57
2023/12/29 01:46:01;;;;;;;0.85;0.85;;;;;;;8.34;85.77;96894.16;29395;230;63009;-57
2023/12/29 01:46:35;;;;;;;0.50;0.50;;;;;;;8.36;85.60;96894.69;29395;195;63005;-57
2023/12/29 01:47:15;;;;;;;0.50;0.50;;;;;;;8.40;85.32;96898.44;29395;202;63009;-59
2023/12/29 01:47:47;;;;;;;0.60;0.60;;;;;;;8.50;84.40;96893.00;29417;240;63005;-57
2023/12/29 01:48:19;;;;;;;0.50;0.50;;;;;;;8.48;84.30;96888.94;29395;226;63009;-57
2023/12/29 01:48:51;;;;;;;0.60;0.60;;;;;;;8.46;84.50;96891.94;29395;202;63004;-57
2023/12/29 01:49:22;;;;;;;0.60;0.60;;;;;;;8.41;84.51;96894.66;29395;229;63009;-58
2023/12/29 01:49:54;;;;;;;0.57;0.57;;;;;;;8.38;84.72;96889.81;29394;258;64009;-56
2023/12/29 01:50:26;;;;;;;0.50;0.50;;;;;;;8.37;84.74;96890.87;29395;232;63009;-56
2023/12/29 01:50:58;;;;;;;0.60;0.60;;;;;;;8.38;84.91;96887.91;29394;210;64004;-58
2023/12/29 01:51:30;;;;;;;0.82;0.82;;;;;;;8.37;84.91;96886.28;29395;245;63008;-57
2023/12/29 01:52:03;;;;;;;0.50;0.50;;;;;;;8.39;84.44;96880.59;29395;249;63004;-56
2023/12/29 01:52:35;;;;;;;0.50;0.50;;;;;;;8.36;84.37;96878.44;29395;221;63009;-56
2023/12/29 01:53:07;;;;;;;0.50;0.50;;;;;;;8.32;84.88;96880.06;29395;206;63005;-56
2023/12/29 01:53:39;;;;;;;1.17;1.17;;;;;;;8.29;85.08;96875.25;29395;215;63009;-56
2023/12/29 01:54:12;;;;;;;0.50;0.50;;;;;;;8.24;85.77;96876.06;29395;250;63017;-55
2023/12/29 01:54:46;;;;;;;0.60;0.60;;;;;;;8.23;85.68;96879.06;29395;232;63009;-58
2023/12/29 01:55:21;;;;;;;0.60;0.60;;;;;;;8.23;85.75;96881.75;29394;240;64009;-57
2023/12/29 01:55:52;;;;;;;0.50;0.50;;;;;;;8.31;85.22;96878.47;29395;227;63009;-57
2023/12/29 01:56:25;;;;;;;0.50;0.50;;;;;;;8.37;84.85;96880.06;29395;233;63004;-56
2023/12/29 01:56:59;;;;;;;0.50;0.50;;;;;;;8.34;84.85;96881.44;29395;212;63009;-56
2023/12/29 01:57:34;;;;;;;0.60;0.60;;;;;;;8.30;85.36;96883.06;29395;208;63004;-57
2023/12/29 01:58:06;;;;;;;0.60;0.60;;;;;;;8.36;85.08;96886.56;29395;274;63009;-57
2023/12/29 01:58:37;;;;;;;0.50;0.50;;;;;;;8.38;84.74;96881.69;29395;228;63004;-55
2023/12/29 01:59:09;;;;;;;0.50;0.50;;;;;;;8.36;85.05;96875.75;29395;259;63008;-54
2023/12/29 01:59:41;;;;;;;0.50;0.50;;;;;;;8.33;84.92;96887.12;29395;219;63005;-55
2023/12/29 02:00:13;;;;;;;0.68;0.68;;;;;;;8.34;85.05;96883.34;29395;216;63009;-56
2023/12/29 02:00:45;;;;;;;0.50;0.50;;;;;;;8.31;85.35;96881.19;29394;270;64009;-56
2023/12/29 02:01:18;;;;;;;0.60;0.60;;;;;;;8.32;85.02;96880.91;29395;211;63009;-55
2023/12/29 02:01:50;;;;;;;0.50;0.50;;;;;;;8.31;85.39;96873.06;29395;217;63005;-55
2023/12/29 02:02:21;;;;;;;0.50;0.50;;;;;;;8.27;85.77;96877.41;29395;242;63009;-57
2023/12/29 02:02:53;;;;;;;0.50;0.50;;;;;;;8.27;85.99;96867.41;29395;204;63010;-56
2023/12/29 02:03:24;;;;;;;0.50;0.50;;;;;;;8.25;85.64;96874.19;29395;225;63009;-57
2023/12/29 02:03:56;;;;;;;0.50;0.50;;;;;;;8.23;85.88;96881.75;29395;197;63004;-57
2023/12/29 02:04:28;;;;;;;0.50;0.50;;;;;;;8.29;85.46;96869.84;29395;208;63009;-57
2023/12/29 02:05:00;;;;;;;0.60;0.60;;;;;;;8.32;85.71;96870.09;29395;226;63004;-56
2023/12/29 02:05:34;;;;;;;1.05;1.05;;;;;;;8.36;85.47;96864.94;29395;249;63009;-62
2023/12/29 02:06:08;;;;;;;0.50;0.50;;;;;;;8.38;85.06;96863.56;29394;212;64009;-57
2023/12/29 02:06:40;;;;;;;0.50;0.50;;;;;;;8.36;84.94;96870.34;29395;206;63008;-56
2023/12/29 02:07:12;;;;;;;0.50;0.50;;;;;;;8.37;84.92;96872.78;29395;216;63005;-57
2023/12/29 02:07:43;;;;;;;0.50;0.50;;;;;;;8.37;85.07;96877.38;29395;240;63009;-57
2023/12/29 02:08:15;;;;;;;0.55;0.55;;;;;;;8.38;85.13;96865.47;29395;209;63005;-57
2023/12/29 02:08:48;;;;;;;0.50;0.50;;;;;;;8.39;84.66;96862.50;29395;222;63009;-56
2023/12/29 02:09:19;;;;;;;0.50;0.50;;;;;;;8.37;85.36;96866.56;29395;222;63005;-56
2023/12/29 02:09:51;;;;;;;0.50;0.50;;;;;;;8.34;85.22;96873.31;29395;221;63009;-57
2023/12/29 02:10:23;;;;;;;0.50;0.50;;;;;;;8.38;85.24;96876.28;29395;225;63012;-56
2023/12/29 02:10:55;;;;;;;0.60;0.60;;;;;;;8.38;85.16;96873.59;29395;267;63017;-55
2023/12/29 02:11:27;;;;;;;0.50;0.50;;;;;;;8.36;85.28;96863.03;29394;238;64009;-55
2023/12/29 02:11:58;;;;;;;0.60;0.60;;;;;;;8.39;85.12;96856.28;29395;202;63009;-57
2023/12/29 02:12:30;;;;;;;0.50;0.50;;;;;;;8.39;85.14;96864.38;29395;255;63004;-54
2023/12/29 02:13:02;;;;;;;0.50;0.50;;;;;;;8.34;85.10;96867.91;29395;274;63009;-55
2023/12/29 02:13:34;;;;;;;0.50;0.50;;;;;;;8.36;85.69;96870.34;29395;246;63004;-57
2023/12/29 02:14:06;;;;;;;0.60;0.60;;;;;;;8.39;85.33;96861.69;29395;218;63008;-55
2023/12/29 02:14:37;;;;;;;0.50;0.50;;;;;;;8.38;85.24;96857.34;29395;244;63004;-55
2023/12/29 02:15:10;;;;;;;0.50;0.50;;;;;;;8.32;85.49;96867.38;29395;229;63026;-55
2023/12/29 02:15:41;;;;;;;0.50;0.50;;;;;;;8.28;85.81;96868.22;29395;248;63005;-55
2023/12/29 02:16:21;;;;;;;0.50;0.50;;;;;;;8.23;86.15;96862.84;29395;209;63009;-55
2023/12/29 02:17:11;;;;;;;0.60;0.60;;;;;;;8.18;86.39;96868.25;29394;205;64009;-57
2023/12/29 02:17:52;;;;;;;0.50;0.50;;;;;;;8.19;86.46;96864.47;29394;243;64013;-56
2023/12/29 02:18:25;;;;;;;0.50;0.50;;;;;;;8.17;86.93;96853.13;29395;197;63004;-55
2023/12/29 02:18:58;;;;;;;0.60;0.60;;;;;;;8.13;87.31;96865.56;29395;338;63018;-56
2023/12/29 02:19:43;;;;;;;0.50;0.50;;;;;;;8.08;87.52;96864.50;29395;257;63004;-56
2023/12/29 02:20:17;;;;;;;0.50;0.50;;;;;;;8.07;87.51;96878.31;29395;222;63009;-57
2023/12/29 02:20:48;;;;;;;0.50;0.50;;;;;;;8.08;87.86;96866.41;29395;304;63004;-58
2023/12/29 02:21:25;;;;;;;0.80;0.80;;;;;;;8.10;87.34;96866.94;29395;242;63008;-54
2023/12/29 02:21:56;;;;;;;0.50;0.50;;;;;;;8.10;87.40;96860.72;29395;241;63004;-57
2023/12/29 02:22:27;;;;;;;0.50;0.50;;;;;;;8.11;87.15;96870.44;29395;266;63009;-56
2023/12/29 02:23:00;;;;;;;0.50;0.50;;;;;;;8.13;87.35;96865.56;29394;213;64009;-55
2023/12/29 02:23:32;;;;;;;2.92;0.80;;;;;;;8.20;86.78;96860.69;29395;216;63009;-61
2023/12/29 02:24:04;;;;;;;0.50;0.50;;;;;;;8.30;86.22;96857.94;29395;254;63009;-56
2023/12/29 02:24:36;;;;;;;0.60;0.60;;;;;;;8.36;85.58;96854.13;29395;218;63019;-57
2023/12/29 02:25:08;;;;;;;0.60;0.60;;;;;;;8.40;85.64;96857.88;29395;211;63005;-57
2023/12/29 02:25:39;;;;;;;0.50;0.50;;;;;;;8.37;85.21;96855.75;29395;212;63009;-56
2023/12/29 02:26:16;;;;;;;0.50;0.50;;;;;;;8.34;85.73;96856.28;29395;250;63004;-56
2023/12/29 02:26:55;;;;;;;0.50;0.50;;;;;;;8.31;85.85;96856.84;29395;209;63009;-56
2023/12/29 02:27:58;;;;;;;0.50;0.50;;;;;;;8.30;85.81;96847.13;29395;207;63004;-56
2023/12/29 02:28:30;;;;;;;0.65;0.65;;;;;;;8.27;85.92;96851.19;29394;201;64008;-57
2023/12/29 02:29:05;;;;;;;0.50;0.50;;;;;;;8.30;85.71;96849.81;29395;236;63024;-56
2023/12/29 02:29:39;;;;;;;0.50;0.50;;;;;;;8.27;85.77;96847.69;29395;313;63005;-56
2023/12/29 02:30:22;;;;;;;0.50;0.50;;;;;;;8.24;85.91;96850.94;29395;223;63009;-56
2023/12/29 02:31:06;;;;;;;0.50;0.50;;;;;;;8.21;86.10;96846.91;29395;197;63005;-56
2023/12/29 02:31:40;;;;;;;0.50;0.50;;;;;;;8.18;86.65;96854.75;29395;251;63009;-56
2023/12/29 02:32:17;;;;;;;0.50;0.50;;;;;;;8.15;86.73;96847.19;29395;232;63005;-55
2023/12/29 02:32:53;;;;;;;0.77;0.77;;;;;;;8.24;86.35;96848.22;29395;232;63009;-56
2023/12/29 02:33:26;;;;;;;0.50;0.50;;;;;;;8.23;86.19;96849.31;29395;276;63004;-58
2023/12/29 02:34:01;;;;;;;0.50;0.50;;;;;;;8.24;86.50;96850.94;29394;220;64013;-57
2023/12/29 02:34:33;;;;;;;0.50;0.50;;;;;;;8.23;86.20;96854.72;29395;238;63004;-56
2023/12/29 02:35:07;;;;;;;0.52;0.52;;;;;;;8.22;86.12;96855.81;29395;217;63009;-57
2023/12/29 02:35:43;;;;;;;0.50;0.50;;;;;;;8.23;86.20;96849.31;29395;262;63004;-56
2023/12/29 02:36:17;;;;;;;6.70;6.43;;;;;;;8.23;86.49;96858.22;29395;214;63008;-56
2023/12/29 02:36:50;;;;;;;0.50;0.50;;;;;;;8.22;86.23;96845.00;29395;250;63005;-57
2023/12/29 02:37:23;;;;;;;0.50;0.50;;;;;;;8.21;86.43;96854.19;29395;258;63009;-57